createdAt,value
2023-01-17T00:00:00.183Z,2.73
2023-01-17T00:02:52.848Z,2.73
2023-01-17T00:05:38.526Z,2.74
2023-01-17T00:08:24.422Z,2.77
2023-01-17T00:10:51.587Z,2.77
2023-01-17T00:13:19.023Z,2.76
2023-01-17T00:15:46.450Z,2.77
2023-01-17T00:18:13.537Z,2.76
2023-01-17T00:20:59.138Z,2.74
2023-01-17T00:23:44.926Z,2.73
2023-01-17T00:26:17.108Z,2.72
2023-01-17T00:28:44.636Z,2.71
2023-01-17T00:31:13.101Z,2.70
2023-01-17T00:33:40.168Z,2.69
2023-01-17T00:36:08.391Z,2.67
2023-01-17T00:38:36.939Z,2.66
2023-01-17T00:41:06.137Z,2.65
2023-01-17T00:43:51.748Z,2.65
2023-01-17T00:46:37.444Z,2.65
2023-01-17T00:49:23.397Z,2.67
2023-01-17T00:52:09.074Z,2.67
2023-01-17T00:54:55.393Z,2.69
2023-01-17T00:57:41.068Z,2.72
2023-01-17T01:00:27.781Z,2.74
2023-01-17T01:03:13.663Z,2.77
2023-01-17T01:05:59.578Z,2.78
2023-01-17T01:08:46.567Z,2.81
2023-01-17T01:11:34.416Z,2.85
2023-01-17T01:58:44.158Z,3.14
2023-01-17T02:01:11.168Z,3.31
2023-01-17T02:03:38.317Z,3.29
2023-01-17T02:06:24.367Z,3.26
2023-01-17T02:08:51.612Z,3.25
2023-01-17T02:11:18.881Z,3.22
2023-01-17T02:13:45.808Z,3.19
2023-01-17T02:16:20.143Z,3.18
2023-01-17T02:19:02.336Z,3.13
2023-01-17T02:21:33.582Z,3.10
2023-01-17T02:24:00.538Z,3.06
2023-01-17T02:26:30.476Z,3.06
2023-01-17T02:29:22.490Z,3.04
2023-01-17T02:31:58.023Z,3.03
2023-01-17T02:34:25.896Z,2.99
2023-01-17T02:36:57.962Z,2.97
2023-01-17T02:39:30.438Z,2.94
2023-01-17T02:42:03.219Z,2.92
2023-01-17T02:44:30.189Z,2.89
2023-01-17T02:46:57.761Z,2.88
2023-01-17T02:49:27.417Z,2.88
2023-01-17T02:52:12.821Z,2.87
2023-01-17T02:55:01.582Z,2.85
2023-01-17T02:57:37.741Z,2.84
2023-01-17T03:00:14.415Z,2.84
2023-01-17T03:02:55.373Z,2.84
2023-01-17T03:05:41.622Z,2.82
2023-01-17T03:08:08.540Z,2.80
2023-01-17T03:10:35.515Z,2.80
2023-01-17T03:13:02.652Z,2.80
2023-01-17T03:15:29.584Z,2.79
2023-01-17T03:17:59.033Z,2.79
2023-01-17T03:20:26.035Z,2.80
2023-01-17T03:22:52.923Z,2.81
2023-01-17T03:25:19.769Z,2.81
2023-01-17T03:27:46.788Z,2.81
2023-01-17T03:30:14.137Z,2.83
2023-01-17T03:32:40.975Z,2.84
2023-01-17T03:35:08.749Z,2.86
2023-01-17T03:37:35.816Z,2.87
2023-01-17T03:40:02.853Z,2.89
2023-01-17T03:42:29.993Z,2.90
2023-01-17T03:44:56.944Z,2.91
2023-01-17T03:47:23.990Z,2.94
2023-01-17T03:49:51.724Z,2.94
2023-01-17T03:52:18.805Z,2.95
2023-01-17T03:54:45.672Z,2.96
2023-01-17T03:57:12.696Z,2.98
2023-01-17T03:59:39.643Z,3.00
2023-01-17T04:02:06.703Z,3.01
2023-01-17T04:04:34.354Z,3.03
2023-01-17T04:07:01.173Z,3.03
2023-01-17T04:09:28.151Z,3.03
2023-01-17T04:11:55.095Z,3.04
2023-01-17T04:14:21.954Z,3.05
2023-01-17T04:16:48.898Z,3.07
2023-01-17T04:19:15.830Z,3.08
2023-01-17T04:21:42.677Z,3.09
2023-01-17T04:24:09.625Z,3.09
2023-01-17T04:26:36.567Z,3.08
2023-01-17T04:29:03.687Z,3.07
2023-01-17T04:31:30.585Z,3.07
2023-01-17T04:33:57.510Z,3.06
2023-01-17T04:36:24.464Z,3.07
2023-01-17T04:38:51.343Z,3.07
2023-01-17T04:41:18.233Z,3.06
2023-01-17T04:43:45.197Z,3.06
2023-01-17T04:46:12.894Z,3.05
2023-01-17T04:48:40.020Z,3.05
2023-01-17T04:51:06.956Z,3.06
2023-01-17T04:53:33.914Z,3.06
2023-01-17T04:56:00.957Z,3.08
2023-01-17T04:58:28.009Z,3.08
2023-01-17T05:00:55.143Z,3.08
2023-01-17T05:03:23.785Z,3.07
2023-01-17T05:05:50.691Z,3.06
2023-01-17T05:08:17.943Z,3.05
2023-01-17T05:10:46.237Z,3.06
2023-01-17T05:13:13.471Z,3.08
2023-01-17T05:15:40.449Z,3.09
2023-01-17T05:18:08.899Z,3.11
2023-01-17T05:20:36.702Z,3.12
2023-01-17T05:23:03.726Z,3.13
2023-01-17T05:25:31.650Z,3.15
2023-01-17T05:28:00.412Z,3.16
2023-01-17T05:30:28.659Z,3.16
2023-01-17T05:32:56.333Z,3.17
2023-01-17T05:35:25.414Z,3.18
2023-01-17T05:37:52.813Z,3.20
2023-01-17T05:40:21.369Z,3.21
2023-01-17T05:42:48.934Z,3.22
2023-01-17T05:45:17.207Z,3.25
2023-01-17T05:47:48.166Z,3.25
2023-01-17T05:50:17.846Z,3.26
2023-01-17T05:52:52.914Z,3.26
2023-01-17T05:55:20.244Z,3.26
2023-01-17T05:57:47.154Z,3.27
2023-01-17T06:00:14.862Z,3.28
2023-01-17T06:02:41.925Z,3.27
2023-01-17T06:05:09.882Z,3.28
2023-01-17T06:07:36.820Z,3.28
2023-01-17T06:10:04.760Z,3.28
2023-01-17T06:12:32.360Z,3.31
2023-01-17T06:14:59.231Z,3.33
2023-01-17T06:17:26.127Z,3.33
2023-01-17T06:19:53.106Z,3.35
2023-01-17T06:22:20.132Z,3.36
2023-01-17T06:24:47.089Z,3.37
2023-01-17T06:27:14.031Z,3.37
2023-01-17T06:29:41.088Z,3.38
2023-01-17T06:32:08.235Z,3.38
2023-01-17T06:34:35.180Z,3.39
2023-01-17T06:37:02.033Z,3.39
2023-01-17T06:39:28.905Z,3.41
2023-01-17T06:41:56.124Z,3.42
2023-01-17T06:44:23.185Z,3.44
2023-01-17T06:46:50.152Z,3.44
2023-01-17T06:49:17.070Z,3.45
2023-01-17T06:51:43.960Z,3.46
2023-01-17T06:54:10.842Z,3.48
2023-01-17T06:56:37.804Z,3.50
2023-01-17T07:01:56.272Z,3.52
2023-01-17T07:04:23.223Z,3.55
2023-01-17T07:06:50.172Z,3.56
2023-01-17T07:09:17.226Z,3.56
2023-01-17T07:11:45.607Z,3.55
2023-01-17T07:14:13.384Z,3.57
2023-01-17T07:16:40.890Z,3.57
2023-01-17T07:19:07.874Z,3.57
2023-01-17T07:21:34.818Z,3.55
2023-01-17T07:24:01.770Z,3.59
2023-01-17T07:26:28.714Z,3.60
2023-01-17T07:28:55.774Z,3.60
2023-01-17T07:31:22.668Z,3.60
2023-01-17T07:33:49.586Z,3.61
2023-01-17T07:36:16.505Z,3.62
2023-01-17T07:38:45.024Z,3.61
2023-01-17T07:41:12.035Z,3.61
2023-01-17T07:43:39.284Z,3.61
2023-01-17T07:46:07.009Z,3.61
2023-01-17T07:48:34.000Z,3.63
2023-01-17T07:51:01.387Z,3.63
2023-01-17T07:53:29.859Z,3.63
2023-01-17T07:56:01.754Z,3.62
2023-01-17T07:58:28.976Z,3.64
2023-01-17T08:01:04.596Z,3.67
2023-01-17T08:03:35.355Z,3.66
2023-01-17T08:06:02.700Z,3.65
2023-01-17T08:08:29.764Z,3.65
2023-01-17T08:10:56.704Z,3.65
2023-01-17T08:13:23.846Z,3.66
2023-01-17T08:15:51.133Z,3.67
2023-01-17T08:18:18.459Z,3.67
2023-01-17T08:20:45.603Z,3.68
2023-01-17T08:23:12.762Z,3.68
2023-01-17T08:25:40.028Z,3.70
2023-01-17T08:28:07.060Z,3.70
2023-01-17T08:30:34.835Z,3.73
2023-01-17T08:33:01.987Z,3.74
2023-01-17T08:35:29.133Z,3.75
2023-01-17T08:37:56.539Z,3.76
2023-01-17T08:40:23.708Z,3.76
2023-01-17T08:42:55.455Z,3.78
2023-01-17T08:45:22.351Z,3.79
2023-01-17T08:47:49.604Z,3.80
2023-01-17T08:50:20.734Z,3.82
2023-01-17T08:52:50.799Z,3.82
2023-01-17T08:55:17.960Z,3.82
2023-01-17T08:57:45.066Z,3.83
2023-01-17T09:00:16.233Z,3.83
2023-01-17T09:02:43.101Z,3.82
2023-01-17T09:05:10.310Z,3.83
2023-01-17T09:07:37.389Z,3.84
2023-01-17T09:10:05.322Z,3.85
2023-01-17T09:12:33.084Z,3.86
2023-01-17T09:15:01.012Z,3.87
2023-01-17T09:17:28.014Z,3.86
2023-01-17T09:19:54.943Z,3.87
2023-01-17T13:46:20.450Z,4.47
2023-01-17T13:48:49.470Z,4.60
2023-01-17T13:51:19.969Z,4.59
2023-01-17T13:53:47.507Z,4.57
2023-01-17T13:56:30.048Z,4.56
2023-01-17T13:59:02.219Z,4.54
2023-01-17T14:01:32.620Z,4.52
2023-01-17T14:03:59.611Z,4.50
2023-01-17T14:06:40.839Z,4.48
2023-01-17T14:09:19.148Z,4.46
2023-01-17T14:12:10.713Z,4.43
2023-01-17T14:14:41.021Z,4.41
2023-01-17T14:17:29.389Z,4.40
2023-01-17T14:20:01.323Z,4.39
2023-01-17T14:22:29.741Z,4.39
2023-01-17T14:24:57.702Z,4.37
2023-01-17T14:27:25.064Z,4.39
2023-01-17T14:29:59.253Z,4.38
2023-01-17T14:32:31.875Z,4.38
2023-01-17T14:34:59.011Z,4.40
2023-01-17T14:37:32.272Z,4.41
2023-01-17T14:39:59.911Z,4.44
2023-01-17T14:42:29.016Z,4.45
2023-01-17T14:45:09.135Z,4.46
2023-01-17T14:47:39.417Z,4.48
2023-01-17T14:50:37.107Z,4.49
2023-01-17T14:53:13.413Z,4.51
2023-01-17T14:55:57.341Z,4.53
2023-01-17T14:58:34.425Z,4.57
2023-01-17T15:01:03.386Z,4.62
2023-01-17T15:03:32.414Z,4.65
2023-01-17T15:06:22.884Z,4.66
2023-01-17T15:08:50.048Z,4.69
2023-01-17T15:11:25.697Z,4.73
2023-01-17T15:13:55.036Z,4.79
2023-01-17T15:16:24.632Z,4.85
2023-01-17T15:18:52.812Z,4.90
2023-01-17T15:21:35.716Z,4.95
2023-01-17T15:24:07.065Z,5.00
2023-01-17T15:26:34.902Z,5.04
2023-01-17T15:29:12.546Z,5.08
2023-01-17T15:31:39.390Z,5.13
2023-01-17T15:34:07.438Z,5.17
2023-01-17T15:36:34.504Z,5.19
2023-01-17T15:39:30.403Z,5.22
2023-01-17T15:41:59.320Z,5.24
2023-01-17T15:44:47.432Z,5.26
2023-01-17T15:47:32.314Z,5.28
2023-01-17T15:50:00.795Z,5.30
2023-01-17T15:52:28.050Z,5.32
2023-01-17T15:55:13.849Z,5.34
2023-01-17T15:57:40.995Z,5.37
2023-01-17T16:00:18.594Z,5.41
2023-01-17T16:02:46.422Z,5.43
2023-01-17T16:05:23.124Z,5.43
2023-01-17T16:07:54.173Z,5.47
2023-01-17T16:10:23.231Z,5.48
2023-01-17T16:12:52.866Z,5.50
2023-01-17T16:15:26.254Z,5.53
2023-01-17T16:17:57.888Z,5.56
2023-01-17T16:20:34.860Z,5.59
2023-01-17T16:23:02.718Z,5.62
2023-01-17T16:25:32.625Z,5.65
2023-01-17T16:27:59.863Z,5.67
2023-01-17T16:30:26.826Z,5.70
2023-01-17T16:32:53.746Z,5.71
2023-01-17T16:35:25.574Z,5.72
2023-01-17T16:37:56.564Z,5.74
2023-01-17T16:40:25.148Z,5.78
2023-01-17T16:42:52.038Z,5.78
2023-01-17T16:45:19.108Z,5.80
2023-01-17T16:47:47.032Z,5.82
2023-01-17T16:50:15.541Z,5.83
2023-01-17T16:52:42.609Z,5.84
2023-01-17T16:55:12.390Z,5.85
2023-01-17T16:57:39.396Z,5.86
2023-01-17T17:00:10.289Z,5.85
2023-01-17T17:02:39.197Z,5.86
2023-01-17T17:05:10.391Z,5.87
2023-01-17T17:07:43.005Z,5.87
2023-01-17T17:10:10.966Z,5.88
2023-01-17T17:12:37.841Z,5.89
2023-01-17T17:15:05.872Z,5.90
2023-01-17T17:17:40.549Z,5.91
2023-01-17T17:20:12.642Z,5.91
2023-01-17T17:44:38.722Z,5.86
2023-01-17T17:47:05.694Z,5.85
2023-01-17T17:49:36.089Z,5.84
2023-01-17T17:52:04.745Z,5.86
2023-01-17T17:54:31.702Z,5.86
2023-01-17T17:56:58.587Z,5.88
2023-01-17T17:59:25.443Z,5.89
2023-01-17T18:01:52.549Z,5.90
2023-01-17T18:04:19.831Z,5.93
2023-01-17T18:06:46.782Z,5.94
2023-01-17T18:09:13.833Z,5.95
2023-01-17T18:11:41.779Z,5.95
2023-01-17T18:14:12.002Z,5.97
2023-01-17T18:16:41.677Z,5.98
2023-01-17T18:19:12.475Z,5.99
2023-01-17T18:21:39.741Z,6.01
2023-01-17T18:24:09.452Z,6.02
2023-01-17T18:26:41.832Z,6.02
2023-01-17T18:29:09.855Z,6.01
2023-01-17T18:31:36.996Z,6.02
2023-01-17T18:34:05.463Z,6.03
2023-01-17T18:36:36.103Z,6.06
2023-01-17T18:39:30.472Z,6.07
2023-01-17T18:41:58.155Z,6.07
2023-01-17T18:44:27.008Z,6.09
2023-01-17T18:47:22.522Z,6.10
2023-01-17T18:49:54.008Z,6.11
2023-01-17T18:52:21.223Z,6.10
2023-01-17T18:54:48.479Z,6.10
2023-01-17T18:57:15.520Z,6.10
2023-01-17T18:59:45.747Z,6.11
2023-01-17T19:02:12.800Z,6.09
2023-01-17T19:04:42.767Z,6.09
2023-01-17T19:07:11.771Z,6.11
2023-01-17T19:09:39.485Z,6.13
2023-01-17T19:12:07.684Z,6.14
2023-01-17T19:14:34.595Z,6.16
2023-01-17T19:17:01.908Z,6.17
2023-01-17T19:19:29.104Z,6.16
2023-01-17T19:21:57.107Z,6.16
2023-01-17T19:24:24.333Z,6.18
2023-01-17T19:26:54.241Z,6.20
2023-01-17T19:29:22.689Z,6.22
2023-01-17T19:31:49.922Z,6.23
2023-01-17T19:34:20.046Z,6.25
2023-01-17T19:36:50.657Z,6.26
2023-01-17T19:39:18.426Z,6.28
2023-01-17T19:41:45.912Z,6.29
2023-01-17T19:44:13.913Z,6.30
2023-01-17T19:46:40.952Z,6.31
2023-01-17T19:49:08.667Z,6.31
2023-01-17T19:51:36.439Z,6.32
2023-01-17T19:54:04.371Z,6.30
2023-01-17T19:56:31.604Z,6.30
2023-01-17T19:59:01.843Z,6.31
2023-01-17T20:01:31.670Z,6.31
2023-01-17T20:03:59.154Z,6.32
2023-01-17T20:06:29.134Z,6.31
2023-01-17T20:08:56.564Z,6.31
2023-01-17T20:11:24.208Z,6.30
2023-01-17T20:13:54.265Z,6.28
2023-01-17T20:16:24.790Z,6.26
2023-01-17T20:18:51.991Z,6.25
2023-01-17T20:21:23.970Z,6.24
2023-01-17T20:23:51.782Z,6.23
2023-01-17T20:26:21.215Z,6.23
2023-01-17T20:28:49.108Z,6.21
2023-01-17T20:31:26.416Z,6.21
2023-01-17T20:33:54.694Z,6.21
2023-01-17T20:36:26.943Z,6.19
2023-01-17T20:38:54.805Z,6.19
2023-01-17T20:41:32.207Z,6.19
2023-01-17T20:44:00.165Z,6.19
2023-01-17T20:46:35.687Z,6.19
2023-01-17T20:49:05.569Z,6.19
2023-01-17T20:51:38.611Z,6.18
2023-01-17T20:54:06.533Z,6.16
2023-01-17T20:56:37.843Z,6.17
2023-01-17T20:59:09.649Z,6.16
2023-01-17T21:01:37.376Z,6.16
2023-01-17T21:04:04.930Z,6.15
2023-01-17T21:06:32.075Z,6.14
2023-01-17T21:09:00.150Z,6.13
2023-01-17T21:11:30.780Z,6.13
2023-01-17T21:14:00.589Z,6.11
2023-01-17T21:16:28.240Z,6.10
2023-01-17T21:18:55.308Z,6.08
2023-01-17T21:21:23.762Z,6.05
2023-01-17T21:23:51.708Z,6.03
2023-01-17T21:26:19.643Z,6.02
2023-01-17T21:28:47.397Z,6.00
2023-01-17T21:31:25.443Z,5.97
2023-01-17T21:33:59.370Z,5.93
2023-01-17T21:36:28.507Z,5.90
2023-01-17T21:38:57.300Z,5.87
2023-01-17T21:41:26.650Z,5.85
2023-01-17T21:43:54.670Z,5.84
2023-01-17T21:46:22.250Z,5.83
2023-01-17T21:48:49.277Z,5.82
2023-01-17T21:51:16.566Z,5.78
2023-01-17T21:53:43.784Z,5.74
2023-01-17T21:56:31.006Z,5.70
2023-01-17T21:58:58.365Z,5.64
2023-01-17T22:01:30.444Z,5.60
2023-01-17T22:04:03.618Z,5.54
2023-01-17T22:06:32.226Z,5.47
2023-01-17T22:08:59.492Z,5.41
2023-01-17T22:11:26.923Z,5.35
2023-01-17T22:13:59.042Z,5.29
2023-01-17T22:16:26.863Z,5.23
2023-01-17T22:18:54.052Z,5.18
2023-01-17T22:21:24.810Z,5.11
2023-01-17T22:23:53.859Z,5.06
2023-01-17T22:26:22.955Z,5.00
2023-01-17T22:28:50.094Z,4.94
2023-01-17T22:31:22.923Z,4.91
2023-01-17T22:33:55.152Z,4.87
2023-01-17T22:36:22.497Z,4.81
2023-01-17T22:38:50.527Z,4.77
2023-01-17T22:41:20.387Z,4.73
2023-01-17T22:43:48.931Z,4.70
2023-01-17T22:46:19.272Z,4.67
2023-01-17T22:48:46.362Z,4.64
2023-01-17T22:51:14.762Z,4.60
2023-01-17T22:53:52.765Z,4.55
2023-01-17T22:56:21.940Z,4.53
2023-01-17T22:58:49.331Z,4.53
2023-01-17T23:01:21.883Z,4.51
2023-01-17T23:03:54.127Z,4.47
2023-01-17T23:06:28.977Z,4.42
2023-01-17T23:08:57.546Z,4.38
2023-01-17T23:11:39.879Z,4.36
2023-01-17T23:14:09.241Z,4.36
2023-01-17T23:16:59.775Z,4.36
2023-01-17T23:19:27.847Z,4.37
2023-01-17T23:22:17.661Z,4.38
2023-01-17T23:24:58.207Z,4.38
2023-01-17T23:27:51.669Z,4.36
2023-01-17T23:30:21.170Z,4.36
2023-01-17T23:32:52.317Z,4.35
2023-01-17T23:35:20.801Z,4.35
2023-01-17T23:38:06.484Z,4.35
2023-01-17T23:40:34.587Z,4.34
2023-01-17T23:43:20.382Z,4.35
2023-01-17T23:45:47.366Z,4.37
2023-01-17T23:48:14.447Z,4.38
2023-01-17T23:50:42.852Z,4.40
2023-01-17T23:53:12.159Z,4.42
2023-01-17T23:55:40.815Z,4.45
2023-01-17T23:58:11.463Z,4.46
